sensor_id;sensor_type;location;lat;lon;timestamp;pressure;altitude;pressure_sealevel;temperature;humidity
804;BME280;25687;49.976;8.240;2023-05-01T00:01:38;100153.28;;;11.69;100.00
804;BME280;25687;49.976;8.240;2023-05-01T00:04:03;100156.50;;;11.72;100.00
804;BME280;25687;49.976;8.240;2023-05-01T00:06:28;100159.91;;;11.73;100.00
804;BME280;25687;49.976;8.240;2023-05-01T00:08:53;100151.41;;;11.71;100.00
804;BME280;25687;49.976;8.240;2023-05-01T00:11:19;100153.63;;;11.62;100.00
804;BME280;25687;49.976;8.240;2023-05-01T00:13:44;100145.28;;;11.73;100.00
804;BME280;25687;49.976;8.240;2023-05-01T00:16:11;100144.34;;;11.74;100.00
804;BME280;25687;49.976;8.240;2023-05-01T00:18:37;100134.13;;;11.73;100.00
804;BME280;25687;49.976;8.240;2023-05-01T00:21:03;100135.97;;;11.71;100.00
804;BME280;25687;49.976;8.240;2023-05-01T00:23:28;100139.53;;;11.54;100.00
804;BME280;25687;49.976;8.240;2023-05-01T00:25:53;100135.03;;;11.57;100.00
804;BME280;25687;49.976;8.240;2023-05-01T00:28:19;100133.75;;;11.65;100.00
804;BME280;25687;49.976;8.240;2023-05-01T00:30:44;100134.09;;;11.58;100.00
804;BME280;25687;49.976;8.240;2023-05-01T00:33:10;100126.91;;;11.49;100.00
804;BME280;25687;49.976;8.240;2023-05-01T00:35:35;100121.41;;;11.55;100.00
804;BME280;25687;49.976;8.240;2023-05-01T00:38:00;100129.13;;;11.55;100.00
804;BME280;25687;49.976;8.240;2023-05-01T00:40:26;100120.75;;;11.52;100.00
804;BME280;25687;49.976;8.240;2023-05-01T00:42:52;100116.72;;;11.48;100.00
804;BME280;25687;49.976;8.240;2023-05-01T00:45:17;100120.50;;;11.56;100.00
804;BME280;25687;49.976;8.240;2023-05-01T00:47:42;100119.34;;;11.46;100.00
804;BME280;25687;49.976;8.240;2023-05-01T00:50:08;100113.28;;;11.47;100.00
804;BME280;25687;49.976;8.240;2023-05-01T00:52:34;100115.34;;;11.56;100.00
804;BME280;25687;49.976;8.240;2023-05-01T00:54:59;100108.16;;;11.61;100.00
804;BME280;25687;49.976;8.240;2023-05-01T00:57:25;100105.03;;;11.56;100.00
804;BME280;25687;49.976;8.240;2023-05-01T00:59:50;100108.97;;;11.48;100.00
804;BME280;25687;49.976;8.240;2023-05-01T01:02:15;100093.88;;;11.41;100.00
804;BME280;25687;49.976;8.240;2023-05-01T01:04:45;100098.19;;;11.41;100.00
804;BME280;25687;49.976;8.240;2023-05-01T01:10:07;100090.09;;;11.33;100.00
804;BME280;25687;49.976;8.240;2023-05-01T01:13:01;100090.25;;;11.29;100.00
804;BME280;25687;49.976;8.240;2023-05-01T01:15:42;100090.88;;;11.19;100.00
804;BME280;25687;49.976;8.240;2023-05-01T01:18:19;100086.06;;;11.12;100.00
804;BME280;25687;49.976;8.240;2023-05-01T01:29:13;100079.16;;;10.82;100.00
804;BME280;25687;49.976;8.240;2023-05-01T01:32:02;100071.88;;;10.91;100.00
804;BME280;25687;49.976;8.240;2023-05-01T01:34:34;100073.69;;;10.89;100.00
804;BME280;25687;49.976;8.240;2023-05-01T01:37:07;100075.94;;;10.79;100.00
804;BME280;25687;49.976;8.240;2023-05-01T01:39:45;100077.78;;;10.77;100.00
804;BME280;25687;49.976;8.240;2023-05-01T01:42:17;100070.72;;;10.80;100.00
804;BME280;25687;49.976;8.240;2023-05-01T01:44:50;100065.31;;;10.85;100.00
804;BME280;25687;49.976;8.240;2023-05-01T01:47:16;100068.38;;;10.92;100.00
804;BME280;25687;49.976;8.240;2023-05-01T01:49:48;100063.25;;;10.76;100.00
804;BME280;25687;49.976;8.240;2023-05-01T01:52:17;100061.00;;;10.86;100.00
804;BME280;25687;49.976;8.240;2023-05-01T01:54:49;100062.22;;;10.94;100.00
804;BME280;25687;49.976;8.240;2023-05-01T01:57:17;100056.41;;;10.91;100.00
804;BME280;25687;49.976;8.240;2023-05-01T01:59:45;100064.25;;;10.73;100.00
804;BME280;25687;49.976;8.240;2023-05-01T02:02:13;100056.28;;;10.78;100.00
804;BME280;25687;49.976;8.240;2023-05-01T02:04:41;100055.38;;;10.63;100.00
804;BME280;25687;49.976;8.240;2023-05-01T02:07:07;100050.84;;;10.68;100.00
804;BME280;25687;49.976;8.240;2023-05-01T02:09:34;100053.56;;;10.65;100.00
804;BME280;25687;49.976;8.240;2023-05-01T02:12:01;100057.06;;;10.48;100.00
804;BME280;25687;49.976;8.240;2023-05-01T02:14:28;100053.41;;;10.52;100.00
804;BME280;25687;49.976;8.240;2023-05-01T02:16:55;100051.09;;;10.47;100.00
804;BME280;25687;49.976;8.240;2023-05-01T02:19:23;100053.09;;;10.42;100.00
804;BME280;25687;49.976;8.240;2023-05-01T02:21:49;100047.28;;;10.55;100.00
804;BME280;25687;49.976;8.240;2023-05-01T02:24:16;100048.44;;;10.49;100.00
804;BME280;25687;49.976;8.240;2023-05-01T02:26:48;100043.47;;;10.46;100.00
804;BME280;25687;49.976;8.240;2023-05-01T02:29:14;100042.81;;;10.42;100.00
804;BME280;25687;49.976;8.240;2023-05-01T02:31:39;100042.97;;;10.39;100.00
804;BME280;25687;49.976;8.240;2023-05-01T02:34:04;100042.88;;;10.25;100.00
804;BME280;25687;49.976;8.240;2023-05-01T02:36:30;100042.13;;;10.23;100.00
804;BME280;25687;49.976;8.240;2023-05-01T02:38:57;100036.63;;;10.29;100.00
804;BME280;25687;49.976;8.240;2023-05-01T02:41:24;100038.22;;;10.15;100.00
804;BME280;25687;49.976;8.240;2023-05-01T02:43:56;100043.34;;;10.15;100.00
804;BME280;25687;49.976;8.240;2023-05-01T02:46:23;100035.53;;;10.17;100.00
804;BME280;25687;49.976;8.240;2023-05-01T02:48:49;100040.88;;;10.14;100.00
804;BME280;25687;49.976;8.240;2023-05-01T02:51:16;100042.09;;;10.07;100.00
804;BME280;25687;49.976;8.240;2023-05-01T02:53:42;100035.53;;;10.17;100.00
804;BME280;25687;49.976;8.240;2023-05-01T02:56:08;100035.97;;;10.09;100.00
804;BME280;25687;49.976;8.240;2023-05-01T02:58:33;100037.72;;;10.09;100.00
804;BME280;25687;49.976;8.240;2023-05-01T03:00:59;100037.63;;;10.10;100.00
804;BME280;25687;49.976;8.240;2023-05-01T03:03:24;100031.59;;;10.11;100.00
804;BME280;25687;49.976;8.240;2023-05-01T03:05:50;100034.72;;;10.00;100.00
804;BME280;25687;49.976;8.240;2023-05-01T03:08:16;100034.28;;;9.92;100.00
804;BME280;25687;49.976;8.240;2023-05-01T03:10:41;100035.94;;;9.93;100.00
804;BME280;25687;49.976;8.240;2023-05-01T03:13:07;100032.38;;;9.96;100.00
804;BME280;25687;49.976;8.240;2023-05-01T03:15:32;100024.75;;;9.94;100.00
804;BME280;25687;49.976;8.240;2023-05-01T03:17:58;100022.06;;;9.97;100.00
804;BME280;25687;49.976;8.240;2023-05-01T03:20:23;100020.53;;;9.93;100.00
804;BME280;25687;49.976;8.240;2023-05-01T03:22:48;100023.69;;;9.98;100.00
804;BME280;25687;49.976;8.240;2023-05-01T03:25:13;100017.56;;;10.01;100.00
804;BME280;25687;49.976;8.240;2023-05-01T03:27:39;100023.13;;;10.09;100.00
804;BME280;25687;49.976;8.240;2023-05-01T03:30:05;100015.16;;;10.14;100.00
804;BME280;25687;49.976;8.240;2023-05-01T03:32:31;100013.69;;;10.10;100.00
804;BME280;25687;49.976;8.240;2023-05-01T03:34:56;100014.00;;;10.20;100.00
804;BME280;25687;49.976;8.240;2023-05-01T03:37:22;100021.47;;;10.24;100.00
804;BME280;25687;49.976;8.240;2023-05-01T03:39:47;100015.25;;;10.28;100.00
804;BME280;25687;49.976;8.240;2023-05-01T03:42:12;100007.53;;;10.28;100.00
804;BME280;25687;49.976;8.240;2023-05-01T03:44:37;100015.06;;;10.31;100.00
804;BME280;25687;49.976;8.240;2023-05-01T03:47:03;100008.88;;;10.20;100.00
804;BME280;25687;49.976;8.240;2023-05-01T03:49:28;100003.13;;;10.14;100.00
804;BME280;25687;49.976;8.240;2023-05-01T03:51:54;100000.06;;;10.24;100.00
804;BME280;25687;49.976;8.240;2023-05-01T03:54:19;100001.31;;;10.00;100.00
804;BME280;25687;49.976;8.240;2023-05-01T03:56:44;99998.84;;;10.15;100.00
804;BME280;25687;49.976;8.240;2023-05-01T03:59:10;99998.50;;;10.21;100.00
804;BME280;25687;49.976;8.240;2023-05-01T04:01:35;100000.97;;;10.23;100.00
804;BME280;25687;49.976;8.240;2023-05-01T04:04:01;100004.56;;;10.20;100.00
804;BME280;25687;49.976;8.240;2023-05-01T04:06:26;100005.69;;;10.30;100.00
804;BME280;25687;49.976;8.240;2023-05-01T04:08:52;100000.81;;;10.26;100.00
804;BME280;25687;49.976;8.240;2023-05-01T04:11:17;99998.94;;;10.13;100.00
804;BME280;25687;49.976;8.240;2023-05-01T04:13:42;100002.22;;;10.15;100.00
804;BME280;25687;49.976;8.240;2023-05-01T04:16:08;100008.34;;;10.29;100.00
804;BME280;25687;49.976;8.240;2023-05-01T04:18:33;99992.53;;;10.37;100.00
804;BME280;25687;49.976;8.240;2023-05-01T04:20:58;99994.09;;;10.39;100.00
804;BME280;25687;49.976;8.240;2023-05-01T04:23:23;100000.31;;;10.51;100.00
804;BME280;25687;49.976;8.240;2023-05-01T04:25:49;99999.91;;;10.43;100.00
804;BME280;25687;49.976;8.240;2023-05-01T04:28:14;99996.94;;;10.51;100.00
804;BME280;25687;49.976;8.240;2023-05-01T04:30:39;99998.06;;;10.61;100.00
804;BME280;25687;49.976;8.240;2023-05-01T04:33:04;100001.13;;;10.52;100.00
804;BME280;25687;49.976;8.240;2023-05-01T04:35:39;99999.31;;;10.54;100.00
804;BME280;25687;49.976;8.240;2023-05-01T04:38:05;99999.06;;;10.58;100.00
804;BME280;25687;49.976;8.240;2023-05-01T04:40:31;100002.13;;;10.65;100.00
804;BME280;25687;49.976;8.240;2023-05-01T04:42:56;100000.19;;;10.69;100.00
804;BME280;25687;49.976;8.240;2023-05-01T04:45:21;99996.31;;;10.92;100.00
804;BME280;25687;49.976;8.240;2023-05-01T04:47:46;100000.19;;;10.99;100.00
804;BME280;25687;49.976;8.240;2023-05-01T04:50:12;99999.69;;;10.78;100.00
804;BME280;25687;49.976;8.240;2023-05-01T04:52:37;100003.19;;;10.91;100.00
804;BME280;25687;49.976;8.240;2023-05-01T04:55:03;100005.13;;;10.88;100.00
804;BME280;25687;49.976;8.240;2023-05-01T04:57:28;100007.63;;;10.89;100.00
804;BME280;25687;49.976;8.240;2023-05-01T04:59:54;100007.06;;;10.98;100.00
804;BME280;25687;49.976;8.240;2023-05-01T05:02:19;100008.28;;;10.93;100.00
804;BME280;25687;49.976;8.240;2023-05-01T05:04:44;100003.59;;;10.69;100.00
804;BME280;25687;49.976;8.240;2023-05-01T05:07:10;100003.38;;;10.88;100.00
804;BME280;25687;49.976;8.240;2023-05-01T05:09:35;100008.63;;;10.87;100.00
804;BME280;25687;49.976;8.240;2023-05-01T05:12:00;99995.13;;;10.97;100.00
804;BME280;25687;49.976;8.240;2023-05-01T05:14:27;100001.22;;;11.11;100.00
804;BME280;25687;49.976;8.240;2023-05-01T05:16:53;100002.81;;;11.28;100.00
804;BME280;25687;49.976;8.240;2023-05-01T05:19:18;100000.88;;;11.32;100.00
804;BME280;25687;49.976;8.240;2023-05-01T05:21:43;100002.91;;;11.26;100.00
804;BME280;25687;49.976;8.240;2023-05-01T05:24:08;100005.28;;;11.29;100.00
804;BME280;25687;49.976;8.240;2023-05-01T05:26:34;100002.09;;;11.40;100.00
804;BME280;25687;49.976;8.240;2023-05-01T05:28:59;100004.53;;;11.27;100.00
804;BME280;25687;49.976;8.240;2023-05-01T05:31:24;100000.16;;;11.44;100.00
804;BME280;25687;49.976;8.240;2023-05-01T05:33:49;100000.97;;;11.44;100.00
804;BME280;25687;49.976;8.240;2023-05-01T05:36:15;100002.47;;;11.49;100.00
804;BME280;25687;49.976;8.240;2023-05-01T05:38:40;100005.56;;;11.68;100.00
804;BME280;25687;49.976;8.240;2023-05-01T05:41:05;99995.44;;;11.51;100.00
804;BME280;25687;49.976;8.240;2023-05-01T05:43:30;99998.13;;;11.35;100.00
804;BME280;25687;49.976;8.240;2023-05-01T05:45:57;100000.25;;;11.42;100.00
804;BME280;25687;49.976;8.240;2023-05-01T05:48:22;99998.28;;;11.46;100.00
804;BME280;25687;49.976;8.240;2023-05-01T05:50:48;100003.81;;;11.69;100.00
804;BME280;25687;49.976;8.240;2023-05-01T05:53:15;100002.88;;;11.84;99.60
804;BME280;25687;49.976;8.240;2023-05-01T05:55:40;99999.00;;;11.91;100.00
804;BME280;25687;49.976;8.240;2023-05-01T05:58:07;99996.44;;;11.91;100.00
804;BME280;25687;49.976;8.240;2023-05-01T06:00:32;99998.56;;;11.99;98.96
804;BME280;25687;49.976;8.240;2023-05-01T06:02:57;99997.22;;;12.21;99.62
804;BME280;25687;49.976;8.240;2023-05-01T06:05:23;99992.78;;;12.23;99.02
804;BME280;25687;49.976;8.240;2023-05-01T06:07:48;99994.34;;;12.53;96.57
804;BME280;25687;49.976;8.240;2023-05-01T06:10:13;99998.00;;;12.76;93.41
804;BME280;25687;49.976;8.240;2023-05-01T06:12:39;99999.06;;;12.46;95.12
804;BME280;25687;49.976;8.240;2023-05-01T06:15:05;100004.44;;;12.01;97.01
804;BME280;25687;49.976;8.240;2023-05-01T06:17:31;99999.44;;;12.13;97.09
804;BME280;25687;49.976;8.240;2023-05-01T06:19:56;99995.59;;;12.05;96.85
804;BME280;25687;49.976;8.240;2023-05-01T06:22:22;99982.00;;;12.31;96.80
804;BME280;25687;49.976;8.240;2023-05-01T06:24:47;99983.72;;;12.57;93.24
804;BME280;25687;49.976;8.240;2023-05-01T06:27:12;99986.06;;;12.88;93.40
804;BME280;25687;49.976;8.240;2023-05-01T06:29:38;99979.44;;;13.10;89.68
804;BME280;25687;49.976;8.240;2023-05-01T06:32:03;99981.13;;;12.98;91.04
804;BME280;25687;49.976;8.240;2023-05-01T06:34:29;99978.72;;;12.95;89.38
804;BME280;25687;49.976;8.240;2023-05-01T06:36:55;99981.22;;;13.48;87.74
804;BME280;25687;49.976;8.240;2023-05-01T06:39:20;99972.22;;;14.03;82.97
804;BME280;25687;49.976;8.240;2023-05-01T06:41:46;99970.75;;;14.72;75.46
804;BME280;25687;49.976;8.240;2023-05-01T06:44:12;99965.84;;;14.56;72.39
804;BME280;25687;49.976;8.240;2023-05-01T06:46:37;99974.59;;;15.02;70.85
804;BME280;25687;49.976;8.240;2023-05-01T06:49:02;99973.16;;;15.09;68.48
804;BME280;25687;49.976;8.240;2023-05-01T06:51:28;99967.91;;;15.45;66.59
804;BME280;25687;49.976;8.240;2023-05-01T06:53:54;99978.34;;;16.00;60.36
804;BME280;25687;49.976;8.240;2023-05-01T06:56:19;99976.38;;;16.78;56.22
804;BME280;25687;49.976;8.240;2023-05-01T06:58:45;99969.94;;;16.94;54.38
804;BME280;25687;49.976;8.240;2023-05-01T07:01:11;99970.38;;;17.30;51.75
804;BME280;25687;49.976;8.240;2023-05-01T07:03:36;99970.03;;;17.14;52.43
804;BME280;25687;49.976;8.240;2023-05-01T07:06:01;99976.38;;;16.78;53.62
804;BME280;25687;49.976;8.240;2023-05-01T07:08:27;99973.66;;;16.26;57.36
804;BME280;25687;49.976;8.240;2023-05-01T07:10:52;99976.25;;;15.82;59.80
804;BME280;25687;49.976;8.240;2023-05-01T07:13:18;99974.97;;;15.31;64.20
804;BME280;25687;49.976;8.240;2023-05-01T07:15:43;99968.38;;;15.39;65.49
804;BME280;25687;49.976;8.240;2023-05-01T07:18:09;99963.41;;;15.01;66.70
804;BME280;25687;49.976;8.240;2023-05-01T07:20:36;99963.25;;;14.80;71.45
804;BME280;25687;49.976;8.240;2023-05-01T07:23:02;99972.22;;;14.28;77.35
804;BME280;25687;49.976;8.240;2023-05-01T07:25:27;99975.69;;;14.15;79.00
804;BME280;25687;49.976;8.240;2023-05-01T07:27:53;99967.53;;;14.33;76.76
804;BME280;25687;49.976;8.240;2023-05-01T07:30:19;99964.22;;;14.31;76.98
804;BME280;25687;49.976;8.240;2023-05-01T07:32:44;99969.59;;;14.52;75.23
804;BME280;25687;49.976;8.240;2023-05-01T07:35:09;99968.34;;;14.58;74.22
804;BME280;25687;49.976;8.240;2023-05-01T07:37:35;99966.31;;;14.85;72.69
804;BME280;25687;49.976;8.240;2023-05-01T07:40:00;99966.09;;;14.64;69.93
804;BME280;25687;49.976;8.240;2023-05-01T07:42:26;99968.66;;;14.77;71.61
804;BME280;25687;49.976;8.240;2023-05-01T07:44:52;99971.16;;;14.90;69.69
804;BME280;25687;49.976;8.240;2023-05-01T07:47:17;99966.00;;;15.13;69.24
804;BME280;25687;49.976;8.240;2023-05-01T07:49:43;99966.47;;;15.52;66.42
804;BME280;25687;49.976;8.240;2023-05-01T07:52:08;99969.63;;;14.99;69.07
804;BME280;25687;49.976;8.240;2023-05-01T07:54:35;99969.16;;;14.94;68.73
804;BME280;25687;49.976;8.240;2023-05-01T07:57:00;99967.50;;;15.04;69.49
804;BME280;25687;49.976;8.240;2023-05-01T07:59:26;99964.25;;;15.02;68.04
804;BME280;25687;49.976;8.240;2023-05-01T08:01:53;99960.34;;;15.19;69.54
804;BME280;25687;49.976;8.240;2023-05-01T08:04:19;99960.81;;;15.24;69.80
804;BME280;25687;49.976;8.240;2023-05-01T08:06:50;99961.88;;;15.56;67.33
804;BME280;25687;49.976;8.240;2023-05-01T08:09:15;99960.44;;;15.74;66.39
804;BME280;25687;49.976;8.240;2023-05-01T08:11:41;99963.03;;;15.74;63.04
804;BME280;25687;49.976;8.240;2023-05-01T08:14:06;99965.88;;;15.48;63.10
804;BME280;25687;49.976;8.240;2023-05-01T08:16:33;99964.72;;;15.30;66.12
804;BME280;25687;49.976;8.240;2023-05-01T08:18:58;99955.00;;;15.77;63.56
804;BME280;25687;49.976;8.240;2023-05-01T08:21:24;99949.13;;;15.64;63.18
804;BME280;25687;49.976;8.240;2023-05-01T08:23:49;99955.09;;;15.98;60.76
804;BME280;25687;49.976;8.240;2023-05-01T08:26:15;99949.00;;;15.77;61.84
804;BME280;25687;49.976;8.240;2023-05-01T08:28:40;99955.81;;;16.01;61.61
804;BME280;25687;49.976;8.240;2023-05-01T08:31:06;99956.63;;;16.12;61.01
804;BME280;25687;49.976;8.240;2023-05-01T08:33:31;99956.13;;;16.19;60.49
804;BME280;25687;49.976;8.240;2023-05-01T08:35:56;99955.00;;;15.89;63.04
804;BME280;25687;49.976;8.240;2023-05-01T08:38:22;99953.38;;;15.88;65.53
804;BME280;25687;49.976;8.240;2023-05-01T08:40:52;99954.97;;;16.11;63.15
804;BME280;25687;49.976;8.240;2023-05-01T08:43:18;99947.69;;;17.01;58.21
804;BME280;25687;49.976;8.240;2023-05-01T08:45:46;99949.50;;;18.02;53.33
804;BME280;25687;49.976;8.240;2023-05-01T08:48:12;99946.66;;;18.15;51.20
804;BME280;25687;49.976;8.240;2023-05-01T08:50:44;99944.16;;;18.62;48.28
804;BME280;25687;49.976;8.240;2023-05-01T08:53:10;99954.59;;;18.23;48.59
804;BME280;25687;49.976;8.240;2023-05-01T08:55:38;99949.38;;;18.23;49.98
804;BME280;25687;49.976;8.240;2023-05-01T08:58:06;99955.66;;;17.40;51.29
804;BME280;25687;49.976;8.240;2023-05-01T09:00:33;99948.06;;;17.68;50.99
804;BME280;25687;49.976;8.240;2023-05-01T09:03:00;99953.38;;;18.27;49.57
804;BME280;25687;49.976;8.240;2023-05-01T09:05:30;99948.28;;;18.26;48.57
804;BME280;25687;49.976;8.240;2023-05-01T09:07:57;99946.38;;;19.42;46.08
804;BME280;25687;49.976;8.240;2023-05-01T09:10:23;99948.81;;;21.06;42.35
804;BME280;25687;49.976;8.240;2023-05-01T09:12:54;99955.69;;;21.50;39.70
804;BME280;25687;49.976;8.240;2023-05-01T09:15:21;99952.81;;;21.27;40.51
804;BME280;25687;49.976;8.240;2023-05-01T09:17:47;99950.59;;;22.74;39.63
804;BME280;25687;49.976;8.240;2023-05-01T09:20:12;99952.81;;;23.02;37.44
804;BME280;25687;49.976;8.240;2023-05-01T09:22:38;99949.19;;;23.59;36.37
804;BME280;25687;49.976;8.240;2023-05-01T09:25:04;99953.78;;;23.17;36.47
804;BME280;25687;49.976;8.240;2023-05-01T09:27:34;99952.75;;;23.27;35.69
804;BME280;25687;49.976;8.240;2023-05-01T09:29:59;99943.94;;;23.59;36.82
804;BME280;25687;49.976;8.240;2023-05-01T09:32:26;99956.69;;;23.94;35.53
804;BME280;25687;49.976;8.240;2023-05-01T09:35:07;99944.50;;;24.62;34.39
804;BME280;25687;49.976;8.240;2023-05-01T09:37:33;99945.38;;;24.16;35.03
804;BME280;25687;49.976;8.240;2023-05-01T09:40:08;99947.47;;;24.59;33.35
804;BME280;25687;49.976;8.240;2023-05-01T09:42:39;99945.81;;;25.63;32.74
804;BME280;25687;49.976;8.240;2023-05-01T09:45:11;99943.06;;;23.90;33.83
804;BME280;25687;49.976;8.240;2023-05-01T09:47:38;99935.38;;;23.65;34.56
804;BME280;25687;49.976;8.240;2023-05-01T09:50:04;99943.84;;;25.50;32.69
804;BME280;25687;49.976;8.240;2023-05-01T09:52:29;99942.75;;;25.59;32.54
804;BME280;25687;49.976;8.240;2023-05-01T09:57:35;99938.25;;;24.02;33.14
804;BME280;25687;49.976;8.240;2023-05-01T10:00:03;99940.22;;;22.97;35.35
804;BME280;25687;49.976;8.240;2023-05-01T10:02:32;99942.91;;;21.98;37.62
804;BME280;25687;49.976;8.240;2023-05-01T10:04:58;99935.00;;;20.96;39.83
804;BME280;25687;49.976;8.240;2023-05-01T10:07:25;99932.56;;;21.72;38.93
804;BME280;25687;49.976;8.240;2023-05-01T10:09:50;99936.69;;;22.07;38.68
804;BME280;25687;49.976;8.240;2023-05-01T10:12:26;99931.59;;;21.81;40.34
804;BME280;25687;49.976;8.240;2023-05-01T10:14:53;99933.59;;;22.12;40.58
804;BME280;25687;49.976;8.240;2023-05-01T10:17:19;99923.00;;;23.74;36.15
804;BME280;25687;49.976;8.240;2023-05-01T10:19:44;99930.19;;;24.80;34.68
804;BME280;25687;49.976;8.240;2023-05-01T10:22:10;99931.06;;;25.32;34.15
804;BME280;25687;49.976;8.240;2023-05-01T10:24:37;99937.19;;;24.49;34.67
804;BME280;25687;49.976;8.240;2023-05-01T10:27:05;99939.97;;;22.26;37.79
804;BME280;25687;49.976;8.240;2023-05-01T10:29:33;99938.13;;;22.84;36.42
804;BME280;25687;49.976;8.240;2023-05-01T10:31:59;99926.28;;;23.45;37.43
804;BME280;25687;49.976;8.240;2023-05-01T10:34:25;99938.22;;;23.79;36.08
804;BME280;25687;49.976;8.240;2023-05-01T10:36:56;99940.16;;;22.49;36.52
804;BME280;25687;49.976;8.240;2023-05-01T10:42:02;99927.50;;;23.26;36.05
804;BME280;25687;49.976;8.240;2023-05-01T10:44:28;99930.97;;;22.70;36.81
804;BME280;25687;49.976;8.240;2023-05-01T10:46:55;99934.72;;;22.26;38.60
804;BME280;25687;49.976;8.240;2023-05-01T10:49:20;99930.31;;;22.60;38.52
804;BME280;25687;49.976;8.240;2023-05-01T10:51:58;99917.09;;;23.01;37.40
804;BME280;25687;49.976;8.240;2023-05-01T10:54:31;99916.88;;;22.30;39.12
804;BME280;25687;49.976;8.240;2023-05-01T10:56:59;99919.88;;;23.16;38.68
804;BME280;25687;49.976;8.240;2023-05-01T10:59:26;99910.03;;;23.49;38.46
804;BME280;25687;49.976;8.240;2023-05-01T11:01:51;99912.78;;;23.08;38.36
804;BME280;25687;49.976;8.240;2023-05-01T11:12:15;99909.75;;;20.34;43.26
804;BME280;25687;49.976;8.240;2023-05-01T11:20:12;99906.75;;;22.02;42.52
804;BME280;25687;49.976;8.240;2023-05-01T11:22:57;99905.06;;;22.59;42.70
804;BME280;25687;49.976;8.240;2023-05-01T11:25:28;99903.47;;;22.58;41.19
804;BME280;25687;49.976;8.240;2023-05-01T11:27:59;99897.88;;;22.36;41.91
804;BME280;25687;49.976;8.240;2023-05-01T11:30:35;99899.03;;;20.90;43.01
804;BME280;25687;49.976;8.240;2023-05-01T11:33:01;99893.28;;;20.86;45.10
804;BME280;25687;49.976;8.240;2023-05-01T11:35:27;99887.53;;;21.09;44.84
804;BME280;25687;49.976;8.240;2023-05-01T11:37:52;99891.88;;;21.35;43.98
804;BME280;25687;49.976;8.240;2023-05-01T11:40:25;99875.66;;;20.88;43.97
804;BME280;25687;49.976;8.240;2023-05-01T11:42:59;99879.69;;;21.09;45.75
804;BME280;25687;49.976;8.240;2023-05-01T11:45:24;99876.91;;;20.76;44.97
804;BME280;25687;49.976;8.240;2023-05-01T11:47:50;99869.16;;;20.40;44.80
804;BME280;25687;49.976;8.240;2023-05-01T11:50:15;99877.81;;;19.96;47.29
804;BME280;25687;49.976;8.240;2023-05-01T11:52:48;99879.66;;;20.04;49.42
804;BME280;25687;49.976;8.240;2023-05-01T11:55:15;99870.28;;;20.11;46.87
804;BME280;25687;49.976;8.240;2023-05-01T11:57:48;99883.38;;;19.19;48.82
804;BME280;25687;49.976;8.240;2023-05-01T12:00:15;99868.28;;;19.41;52.21
804;BME280;25687;49.976;8.240;2023-05-01T12:03:11;99871.88;;;19.76;48.60
804;BME280;25687;49.976;8.240;2023-05-01T12:05:38;99864.03;;;19.40;48.90
804;BME280;25687;49.976;8.240;2023-05-01T12:10:34;99867.53;;;19.48;50.93
804;BME280;25687;49.976;8.240;2023-05-01T12:13:02;99861.91;;;19.89;49.84
804;BME280;25687;49.976;8.240;2023-05-01T12:15:28;99864.88;;;20.30;49.70
804;BME280;25687;49.976;8.240;2023-05-01T12:17:55;99858.19;;;20.62;50.12
804;BME280;25687;49.976;8.240;2023-05-01T12:20:38;99864.88;;;20.57;49.22
804;BME280;25687;49.976;8.240;2023-05-01T12:23:05;99860.03;;;20.70;45.93
804;BME280;25687;49.976;8.240;2023-05-01T12:25:34;99860.75;;;20.28;47.26
804;BME280;25687;49.976;8.240;2023-05-01T12:28:01;99856.91;;;20.40;47.90
804;BME280;25687;49.976;8.240;2023-05-01T12:30:27;99858.84;;;20.64;48.52
804;BME280;25687;49.976;8.240;2023-05-01T12:32:54;99861.00;;;20.69;45.07
804;BME280;25687;49.976;8.240;2023-05-01T12:35:20;99860.84;;;20.71;44.50
804;BME280;25687;49.976;8.240;2023-05-01T12:37:45;99861.94;;;20.34;44.65
804;BME280;25687;49.976;8.240;2023-05-01T12:40:13;99863.41;;;20.36;45.33
804;BME280;25687;49.976;8.240;2023-05-01T12:42:40;99861.00;;;20.69;45.61
804;BME280;25687;49.976;8.240;2023-05-01T12:45:06;99861.22;;;20.76;44.16
804;BME280;25687;49.976;8.240;2023-05-01T12:47:37;99865.56;;;20.93;45.85
804;BME280;25687;49.976;8.240;2023-05-01T12:50:03;99855.44;;;21.50;45.43
804;BME280;25687;49.976;8.240;2023-05-01T12:52:29;99855.22;;;20.84;45.55
804;BME280;25687;49.976;8.240;2023-05-01T12:55:03;99849.81;;;20.06;50.07
804;BME280;25687;49.976;8.240;2023-05-01T12:57:29;99847.69;;;20.28;49.97
804;BME280;25687;49.976;8.240;2023-05-01T13:00:01;99852.34;;;20.42;49.74
804;BME280;25687;49.976;8.240;2023-05-01T13:02:29;99849.97;;;20.75;48.21
804;BME280;25687;49.976;8.240;2023-05-01T13:05:11;99847.25;;;20.93;47.77
804;BME280;25687;49.976;8.240;2023-05-01T13:07:37;99842.09;;;21.10;48.58
804;BME280;25687;49.976;8.240;2023-05-01T13:10:05;99839.75;;;21.50;47.36
804;BME280;25687;49.976;8.240;2023-05-01T13:12:31;99836.06;;;21.26;45.15
804;BME280;25687;49.976;8.240;2023-05-01T13:14:57;99843.56;;;21.12;47.25
804;BME280;25687;49.976;8.240;2023-05-01T13:20:02;99828.13;;;22.43;42.09
804;BME280;25687;49.976;8.240;2023-05-01T13:24:57;99834.16;;;22.60;40.12
804;BME280;25687;49.976;8.240;2023-05-01T13:27:22;99829.63;;;22.29;41.24
804;BME280;25687;49.976;8.240;2023-05-01T13:29:53;99831.94;;;21.74;43.37
804;BME280;25687;49.976;8.240;2023-05-01T13:32:20;99827.19;;;21.86;45.72
804;BME280;25687;49.976;8.240;2023-05-01T13:34:45;99835.84;;;22.28;43.79
804;BME280;25687;49.976;8.240;2023-05-01T13:37:10;99827.47;;;22.49;42.30
804;BME280;25687;49.976;8.240;2023-05-01T13:39:43;99824.09;;;22.72;42.70
804;BME280;25687;49.976;8.240;2023-05-01T13:42:12;99829.13;;;22.25;42.62
804;BME280;25687;49.976;8.240;2023-05-01T13:44:43;99827.22;;;22.67;42.56
804;BME280;25687;49.976;8.240;2023-05-01T13:47:16;99825.91;;;22.71;42.05
804;BME280;25687;49.976;8.240;2023-05-01T13:49:42;99830.00;;;23.05;42.72